Timeline UpdatesTrip UpdatesNews PostsPvt PostsTravel TipsAdmin PostsConv PostsFollowed PostsChat RequestsBlog PostsPNR Posts

Disclaimer
Search
 
 
Tue Sep 23, 2014 19:54:18 ISTHomeTrainsΣChainsAtlasPNRForumGalleryNewsFAQTripsMembersLoginFeedback
No Recent News for this Train
Other Trains in the News **new
Latest...
Will stop at Magra on 23/9/14 #1220549
Sun Sep 21, 2014 (06:10PM)
⇐ Return Journey: Train# 53044

53043/Howrah - Rajgir Fast Passenger (UnReserved)

Time-Table HAS CHANGED.
Sep 21 (6:10PM)
Change Departure Station:
Change Arrival Station:
Post a Train Travel TipPost a Train Travel Tip **new
Post a Comment/Question/Picture/VideoPost a Comment/Question/Picture/Video
Pantry/Catering
✕ NO Pantry Car
✕ NO Catering
RSA - Rake Sharing
Rake/Coach Composition
Loco
HWH WDM 3A/3D
News    PNR    Forum    Time-Table    Availability    Fare Chart    Map    Arr/Dep History    Trips    Gallery    ΣChains    X/O    Timeline    
Travel Time: 23h 45m    80 halts    Distance: 657 km    Avg Speed: 27 km/hr
Type: Passenger
Zone: ER/Eastern
Departs @ 11:10
Platform# 10
SMTWTFS
Kolkata Howrah Junction/HWH 
Arrives @ 10:55 +1 night
Platform# ???
SMTWTFS
Rajgir/RGD 

80 halts. 87 intermediate Stations between Kolkata Howrah Junction and Rajgir

Show ALL intermediate Stations  Show Old Time-Table

#CodeStation NameX/OArrivesAvgDepartsAvgHaltPFDay#KmSpeedElevZoneAddress
1HWHKolkata Howrah Junction (23)»  -11:10-1010.04410mERHowrah 711101, West Bengal
2SRPSerampore (4)  11:36-11:39-3m--119.03811mERdist - hooghly, West Bengal
3SHESeoraphuli Junction (6)  11:43-11:45-2m--121.57013mERBaidyabati, West Bengal
4CGRChandan Nagar (3)X  11:54-11:57-3m--132.06016mERDist -HOOGHLY - 712136, West Bengal
5CNSChuchura (3)  12:00-12:01-1m--135.02715mERDist - HOOGHLY - 712102, West Bengal
6BDCBandel Junction (7)X  12:10-12:14-4m--139.07414mERdist - HOOGHLY, West Bengal
7PDAPundooah (3)  12:31-12:32-1m--160.07018mERPandua, West Bengal
8MYMMemari (4)  12:49 12:50-12:50 12:51-1m--181.06025mERMemari, West Bengal
9BWNBarddhaman Junction (8)  13:16-13:21-5m--1106.04634mERDist - Barddhaman, West Bengal
10KANKhana Junction (5)  13:37 13:38-13:38 13:39-1m11119.05042mERDist - Bardhaman, West Bengal
11JTLJhapater Dhal (4)X  13:45-13:46-1m--1124.05036mERDist - Bardhaman, West Bengal
12BPSBanpas (3)X  13:52-13:53-1m--1129.05046mERDist - Bardhaman, West Bengal
13NRXNoadar Dhal (2)  13:59-14:00-1m--1134.04346mERdist - bardhaman, West Bengal
14GKHGuskara (2)X  14:07-14:12-5m21139.07241mERDist - Bardhaman, West Bengal
15PCQPichkurirdhal (3)  14:17-14:18-1m--1145.06038mERDist - Bardhaman, West Bengal
16BDHBhedia (2)  14:23-14:24-1m--1150.05341mERDist - Bardhaman, West Bengal
17BHPBolpur Shantiniketan (3)  14:33-14:36-3m--1158.04059mERDist - Birbhum, West Bengal
18PNEPrantik (3)X  14:42-14:43-1m--1162.04048mERDist - Birbhum, West Bengal
19KPLEKopai (2)  14:52-14:53-1m--1168.06848mERDist - Birbhum, West Bengal
20AMPAhmadpur Junction (3)  15:01-15:02-1m--1177.06046mERDist - Birbhum, West Bengal
21BSLEBataspur (2)  15:08-15:09-1m--1183.04754mERDist - Birbhum, West Bengal
22SNTSainthia Junction (4)  15:18-15:20-2m31190.09658mERDist - Birbhum, West Bengal
23GHLEGadadharpur (3)  15:25-15:26-1m11198.06952mERDist - Birbhum, West Bengal
24MLVMallarpur (3)  15:33-15:34-1m--1206.06046mERDist - Birbhum, West Bengal
25TPFTarapith Road (2)  15:40-15:41-1m--1212.01945mERDist - Birbhum, West Bengal
26RPHRampurhat (3)  16:01 16:00-16:08-7 8m--1218.04941mERDIST - Birbhum, West Bengal
27NHTNalhati Junction (4)  16:25-16:27-2m31232.09048mERDist - Birbhum, West Bengal
28CTRChatra (3)  16:33-16:34-1m--1241.06042mERDist - Birbhum, West Bengal
29MRRMurarai (3)  16:41-16:42-1m--1248.05036mERDist - Birbhum, West Bengal
30BSBRBanshlai Bridge (2)  17:05 16:48-17:06 16:49-1m--1253.07035mERDist - Birbhum, West Bengal
31RJGRajgram (3)X  17:46 16:55-17:48 16:56-2 1m31260.0632mERDist - Birbhum, West Bengal
32NGFNagarnabi (3)X  17:54-17:56-2m31266.05130mERState Highway 5, Jharkhand
33PKRPakur (2)X  18:03-18:07-4m11272.04837mERDist:- Pakur, Jharkhand
34TBBTilbhita (3)  18:12-18:13-1m--1276.04231mERTilbhita, Jharkhand
35KLPKotalpukur (3)  18:23-18:24-1m--1283.02340mERKotalpukur, Jharkhand
36GMANGumani (3)  18:42-18:43-1m--1290.06031mERGumani, Jharkhand
37BHWBarharwa Junction (3)  18:53-18:58-5m11300.04736mERBarharwa, Jharkhand
38BKLEBakudi (3)X  19:07-19:08-1m--1307.06865mERBakudi, Jharkhand
39TPHTinpahar Junction (3)X  19:17 19:16-19:19 19:18-2m11316.06045mERBamangawan, Jharkhand
40KXEKalian Chak  19:24 19:23-19:25 19:24-1m--1321.06045mERKalian Chak, Jharkhand
41TLJTaljhari  19:30 19:29-19:31 19:30-1m--1326.01538mERTaljhari, Jharkhand
42MJPMaharajpur (2)X  20:25-20:32-7m--1340.04034mERMoharajpur, Jharkhand
43SLJSakrigali Junction (3)X  20:40 20:41-20:46-6 5m--1346.03045mERSakrigali, Jharkhand
44SBGSahibganj Junction (3)  21:02-21:12-10m21354.03538mERSahibganj, Jharkhand
45MZCMirza Cheuki (3)X  21:38-21:40-2m11369.03438mERBihar, Bihar
46PPTPirpainti (2)X  21:54-22:02-8m--1377.03653mERBhagalpur, Bihar
47SVRPShivanarayanpur (2)  22:17-22:18-1m--1386.04247mERShivanarayanpur, Bihar
48CLGKahalgaon (2)X  22:36 22:35-22:57 22:36-21 1m21398.0944mERBhagalpur, Bihar
49EKCEkchari (1)X  23:04-23:05-1m11402.07237mERNational Highway 80, Bihar
50GGAGhoga (2)  23:10-23:15-5m--1408.05042mERGhoga, Bihar
51LMMLailakh Mamalkha (2)X  23:21-23:22-1m--1413.04236mERLailakh Mamlkha, Bihar
52SBOSabaur (3)  23:32-23:34-2m--1420.04842mERSabour, Bihar
53BGPBhagalpur Junction (6)  23:44-23:59-15m--1428.02249mERBhagalpur, Bihar
54NATNathnagar (2)  00:10-00:11-1m--2432.09948mERBhagalpur, Bihar
55AKNAkbarnagar (3)  00:19-00:21-2m--2442.02439mERTilakpur, Bihar
56MVVMaheshi (2) new halt!!  00:26-00:27-1m--2444.08037mERTilakpur, Bihar
57SGGSultanGanj (3)X  00:33-00:37-4m--2452.06042mERSultanganj, Bihar
58BUPBariarpur (3)  00:55-00:57-2m--2470.01642mERMunger, Bihar
59JMPJamalpur Junction (4)  01:38-01:48-10m--2481.04059mERJamalpur 06344-243101, Bihar
60DRTPDasharathpur (2)X  01:57-01:59-2m--2487.07248mERDharhara, Bihar
61DRHDharhara (2)  02:04-02:06-2m--2493.06055mERDharhara, Bihar
62MSDNMasudan (2)X  02:12-02:13-1m--2499.04845mERMasudan, Bihar
63AHAAbhaipur (3)  02:18-02:19-1m--2503.06052mERAbhaipur, Bihar
64KJHKajra (2)  02:23 02:26-02:25 02:28-2m--2510.03050mERLakhisarai District, Bihar
65DNREDhanauriX  02:48-02:50-2m--2520.01848mERNational Highway 80, Bihar
66KIULKiul Junction (5)  03:10-03:38-28m--2526.0853mECRDist. Lakhisarai, Bihar
67LKRLuckeesarai Junction (2)X  03:46-03:48-2m--2527.06052mECRLakhisarai, Bihar
68MKBMankathaX  03:54-03:55-1m--2533.03647mECRNational Highway 80, Bihar
69BRYABarhiya (3)X  04:10-04:12-2m--2542.0747mECRBarahiya, Bihar
70RDUMRampur Dumra (3)  05:02-05:04-2m--2548.01346mECRNational Highway 80, Bihar
71HTZHathidah Junction (2)  05:27-05:29-2m22553.01750mECRMusahari, Bihar
72MKAMokama Junction (4)  05:54-05:56-2m--2560.01148mECRPatna, Bihar
73MORMor (2)X  06:34-06:36-2m--2567.03046mECRMor, Bihar
74PHKPunarakh (2)  06:54-06:55-1m--2576.04651mECRPunarakh, Bihar
75BARHBarh (3)X  07:08-07:10-2m--2586.04249mECRBarh, Bihar
76ATLAthmal Gola (2)  07:23-07:25-2m--2595.03652mECRPatna, Bihar
77BKPBakhtiyarpur Junction (5)O  07:40-08:05-25m--2604.06051mECRPatna, Bihar
78HRTHarnaut (3)  08:15-08:16-1m--2614.04349mECRHarnaut, Bihar
79WENAWena (2)  08:23-08:24-1m--2619.03147mECRWena, Bihar
80BEHSBihar Sharif (2)  08:51-08:52-1m--2633.03556mECR06112-222306, Bihar
81NLDNalanda (2)  09:14-09:15-1m--2646.0763mECRNational Highway 82, Bihar
82RGDRajgir (3)•X  10:55----2657.0-71mECRRajgir, Bihar
Scroll to Top
Scroll to Bottom